Aidamar — ICSJ — position and weather

sailwx.info

Track history (hours):
 
Tides and Currents Weather Stations Pressure Air Temp Water Temp Dewpoint Dewpoint Depression Visibility Wind Speed Wind Dir Waves Ship Positions

Aidamar

Last reported at 2014-Dec-20 05:32 UTC. Time now 2014-Dec-20 05:54 UTC.
Position N 39°33' E 002°38'.

Length 253 m; draft 7.3 m.

Type: Ship. MMSI: 247312900.

Date/timePositionNaut miles runAvg speedWind from/ knotsBaromVisibWave heightAir tempDewpointWater temp
2014-Dec-20 05:32N 39°33' E 002°38'0 0.0
2014-Dec-20 04:32N 39°33' E 002°38'2 2.2
2014-Dec-20 03:33N 39°31' E 002°37'1313.0
2014-Dec-20 02:33N 39°29' E 002°21'1514.7
2014-Dec-20 01:32N 39°42' E 002°11'1414.1
2014-Dec-20 00:33N 39°55' E 002°11'9 9.1
2014-Dec-19 23:33N 40°04' E 002°11'9 9.0
2014-Dec-19 22:33N 40°14' E 002°11'9 8.8
2014-Dec-19 21:33N 40°22' E 002°11'9 8.6
2014-Dec-19 20:33N 40°31' E 002°11'1414.3
2014-Dec-19 19:33N 40°45' E 002°11'1716.9
2014-Dec-19 18:33N 41°02' E 002°11'1815.2
2014-Dec-19 17:22N 41°20' E 002°10'1 0.4
2014-Dec-19 14:03N 41°21' E 002°11'0 0.0
2014-Dec-19 13:33N 41°21' E 002°11'0 0.0
2014-Dec-19 12:21N 41°21' E 002°11'0 0.0
2014-Dec-19 11:21N 41°21' E 002°11'0 0.0
2014-Dec-19 10:33N 41°21' E 002°11'0 0.0
2014-Dec-19 09:31N 41°21' E 002°11'0 0.0
2014-Dec-19 08:17N 41°21' E 002°11'1 0.6
2014-Dec-19 07:07N 41°21' E 002°10'4 6.2
2014-Dec-19 06:33N 41°17' E 002°11'1510.1
2014-Dec-19 05:05N 41°22' E 002°30'1316.4
2014-Dec-19 04:17N 41°28' E 002°45'1616.3
2014-Dec-19 03:17N 41°36' E 003°05'1216.6
2014-Dec-19 02:33N 41°41' E 003°19'3916.6
2014-Dec-19 00:12N 41°59' E 004°06'1015.5
2014-Dec-18 23:33N 42°04' E 004°18'1515.3
2014-Dec-18 22:33N 42°11' E 004°36'1515.4
2014-Dec-18 21:33N 42°18' E 004°54'1715.6
2014-Dec-18 20:29N 42°26' E 005°14'1916.3
2014-Dec-18 19:20N 42°34' E 005°37'1916.2
2014-Dec-18 18:08N 42°43' E 006°00'4910.6
2014-Dec-18 13:32N 43°14' E 006°52'1010.0
2014-Dec-18 12:33N 43°21' E 007°01'1010.2
2014-Dec-18 11:34N 43°28' E 007°12'10 9.7
2014-Dec-18 10:33N 43°34' E 007°22'9 8.8
2014-Dec-18 09:33N 43°40' E 007°31'8 7.3
2014-Dec-18 08:27N 43°40' E 007°43'6115.2
2014-Dec-18 04:28N 43°16' E 008°59'1415.2
2014-Dec-18 03:33N 43°12' E 009°17'260 8.1
2014-Dec-16 19:33N 40°39' E 014°00'1514.6
2014-Dec-16 18:33N 40°48' E 014°16'2 0.1
2014-Dec-16 05:34N 40°47' E 014°17'1312.7
2014-Dec-16 04:33N 40°35' E 014°09'1716.9
2014-Dec-16 03:32N 40°19' E 014°03'9017.0
2014-Dec-15 22:15N 38°51' E 013°38'1116.6
2014-Dec-15 21:33N 38°40' E 013°35'1514.6
2014-Dec-15 20:33N 38°26' E 013°30'9 8.9
2014-Dec-15 19:33N 38°17' E 013°28'9 9.2
2014-Dec-15 18:33N 38°08' E 013°25'2 2.1
2014-Dec-15 17:28N 38°08' E 013°22'0 0.0
2014-Dec-15 16:32N 38°08' E 013°22'0 0.0
2014-Dec-15 15:32N 38°08' E 013°22'0 0.0
2014-Dec-15 14:32N 38°08' E 013°22'0 0.0
2014-Dec-15 13:32N 38°08' E 013°22'0 0.0
2014-Dec-15 12:32N 38°08' E 013°22'0 0.0
2014-Dec-15 11:32N 38°08' E 013°22'0 0.0
2014-Dec-15 10:32N 38°08' E 013°22'0 0.0
2014-Dec-15 09:33N 38°08' E 013°22'0 0.0
2014-Dec-15 08:33N 38°08' E 013°22'0 0.0
2014-Dec-15 07:33N 38°08' E 013°22'3 3.2
2014-Dec-15 06:33N 38°10' E 013°24'1313.3
2014-Dec-15 05:33N 38°19' E 013°11'1616.3
2014-Dec-15 04:33N 38°21' E 012°50'1616.6
2014-Dec-15 03:33N 38°23' E 012°29'17916.1
2014-Dec-14 16:27N 38°46' E 008°43'2015.9
2014-Dec-14 15:13N 38°47' E 008°18'18716.1
2014-Dec-14 03:32N 38°58' E 004°17'1816.6
2014-Dec-14 02:26N 39°00' E 003°54'1516.8
2014-Dec-14 01:33N 39°02' E 003°35'1716.6
2014-Dec-14 00:33N 39°03' E 003°14'1616.3
2014-Dec-13 23:33N 39°05' E 002°53'1515.3
2014-Dec-13 22:33N 39°19' E 002°44'1313.4
2014-Dec-13 21:33N 39°32' E 002°39'1 1.4
2014-Dec-13 20:32N 39°33' E 002°38'0 0.0
2014-Dec-13 19:32N 39°33' E 002°38'0 0.0
2014-Dec-13 18:32N 39°33' E 002°38'0 0.0
2014-Dec-13 17:31N 39°33' E 002°38'0 0.0
2014-Dec-13 16:33N 39°33' E 002°38'0 0.0
2014-Dec-13 15:31N 39°33' E 002°38'0 0.0
2014-Dec-13 14:31N 39°33' E 002°38'0 0.0
2014-Dec-13 13:33N 39°33' E 002°38'0 0.0
2014-Dec-13 12:33N 39°33' E 002°38'0 0.0
2014-Dec-13 11:33N 39°33' E 002°38'0 0.0
2014-Dec-13 10:33N 39°33' E 002°38'0 0.0
2014-Dec-13 08:15N 39°33' E 002°38'0 0.0
2014-Dec-13 07:32N 39°33' E 002°38'0 0.0
2014-Dec-13 06:32N 39°33' E 002°38'0 0.0
2014-Dec-13 05:34N 39°33' E 002°38'0 0.0
2014-Dec-13 04:34N 39°33' E 002°38'3 3.5
2014-Dec-13 03:33N 39°30' E 002°36'1313.2
2014-Dec-13 02:33N 39°29' E 002°19'1413.6
2014-Dec-13 01:29N 39°42' E 002°11'1414.8
2014-Dec-13 00:33N 39°56' E 002°11'1514.9
2014-Dec-12 23:33N 40°11' E 002°11'1212.2
2014-Dec-12 22:33N 40°23' E 002°11'7 7.3
2014-Dec-12 21:33N 40°30' E 002°11'7 7.4
2014-Dec-12 20:33N 40°38' E 002°11'1110.7
2014-Dec-12 19:33N 40°48' E 002°11'1716.1
2014-Dec-12 18:32N 41°05' E 002°11'1613.4
2014-Dec-12 17:21N 41°21' E 002°10'1 0.5
2014-Dec-12 16:16N 41°21' E 002°11'0 0.0
2014-Dec-12 13:16N 41°21' E 002°11'0 0.0
2014-Dec-12 07:14N 41°21' E 002°10'17 9.1
2014-Dec-12 05:23N 41°23' E 002°33'12415.8
2014-Dec-11 21:33N 42°20' E 005°01'7414.6
2014-Dec-11 16:26N 42°54' E 006°30'1011.4
2014-Dec-11 15:33N 43°02' E 006°39'1010.4
2014-Dec-11 14:34N 43°10' E 006°48'10 9.5
2014-Dec-11 13:33N 43°18' E 006°56'9 8.9
2014-Dec-11 12:32N 43°24' E 007°05'9 8.8
2014-Dec-11 11:33N 43°30' E 007°14'9 8.7
2014-Dec-11 10:33N 43°36' E 007°23'5 4.5
2014-Dec-11 09:33N 43°38' E 007°28'8 8.2
2014-Dec-11 08:33N 43°40' E 007°39'7815.5
2014-Dec-11 03:32N 43°11' E 009°19'  
Track history (hours):
 
Tides and Currents Weather Stations Pressure Air Temp Water Temp Dewpoint Dewpoint Depression Visibility Wind Speed Wind Dir Waves Ship Positions

Aidamar

Last reported at 2014-Dec-20 05:32 UTC. Time now 2014-Dec-20 05:54 UTC.
Position N 39°33' E 002°38'.

Length 253 m; draft 7.3 m.

Type: Ship. MMSI: 247312900.

Date/timePositionNaut miles runAvg speedWind from/ knotsBaromVisibWave heightAir tempDewpointWater temp
2014-Dec-20 05:32N 39°33' E 002°38'0 0.0
2014-Dec-20 04:32N 39°33' E 002°38'2 2.2
2014-Dec-20 03:33N 39°31' E 002°37'1313.0
2014-Dec-20 02:33N 39°29' E 002°21'1514.7
2014-Dec-20 01:32N 39°42' E 002°11'1414.1
2014-Dec-20 00:33N 39°55' E 002°11'9 9.1
2014-Dec-19 23:33N 40°04' E 002°11'9 9.0
2014-Dec-19 22:33N 40°14' E 002°11'9 8.8
2014-Dec-19 21:33N 40°22' E 002°11'9 8.6
2014-Dec-19 20:33N 40°31' E 002°11'1414.3
2014-Dec-19 19:33N 40°45' E 002°11'1716.9
2014-Dec-19 18:33N 41°02' E 002°11'1815.2
2014-Dec-19 17:22N 41°20' E 002°10'1 0.4
2014-Dec-19 14:03N 41°21' E 002°11'0 0.0
2014-Dec-19 13:33N 41°21' E 002°11'0 0.0
2014-Dec-19 12:21N 41°21' E 002°11'0 0.0
2014-Dec-19 11:21N 41°21' E 002°11'0 0.0
2014-Dec-19 10:33N 41°21' E 002°11'0 0.0
2014-Dec-19 09:31N 41°21' E 002°11'0 0.0
2014-Dec-19 08:17N 41°21' E 002°11'1 0.6
2014-Dec-19 07:07N 41°21' E 002°10'4 6.2
2014-Dec-19 06:33N 41°17' E 002°11'1510.1
2014-Dec-19 05:05N 41°22' E 002°30'1316.4
2014-Dec-19 04:17N 41°28' E 002°45'1616.3
2014-Dec-19 03:17N 41°36' E 003°05'1216.6
2014-Dec-19 02:33N 41°41' E 003°19'3916.6
2014-Dec-19 00:12N 41°59' E 004°06'1015.5
2014-Dec-18 23:33N 42°04' E 004°18'1515.3
2014-Dec-18 22:33N 42°11' E 004°36'1515.4
2014-Dec-18 21:33N 42°18' E 004°54'1715.6
2014-Dec-18 20:29N 42°26' E 005°14'1916.3
2014-Dec-18 19:20N 42°34' E 005°37'1916.2
2014-Dec-18 18:08N 42°43' E 006°00'4910.6
2014-Dec-18 13:32N 43°14' E 006°52'1010.0
2014-Dec-18 12:33N 43°21' E 007°01'1010.2
2014-Dec-18 11:34N 43°28' E 007°12'10 9.7
2014-Dec-18 10:33N 43°34' E 007°22'9 8.8
2014-Dec-18 09:33N 43°40' E 007°31'8 7.3
2014-Dec-18 08:27N 43°40' E 007°43'6115.2
2014-Dec-18 04:28N 43°16' E 008°59'1415.2
2014-Dec-18 03:33N 43°12' E 009°17'260 8.1
2014-Dec-16 19:33N 40°39' E 014°00'1514.6
2014-Dec-16 18:33N 40°48' E 014°16'2 0.1
2014-Dec-16 05:34N 40°47' E 014°17'1312.7
2014-Dec-16 04:33N 40°35' E 014°09'1716.9
2014-Dec-16 03:32N 40°19' E 014°03'9017.0
2014-Dec-15 22:15N 38°51' E 013°38'1116.6
2014-Dec-15 21:33N 38°40' E 013°35'1514.6
2014-Dec-15 20:33N 38°26' E 013°30'9 8.9
2014-Dec-15 19:33N 38°17' E 013°28'9 9.2
2014-Dec-15 18:33N 38°08' E 013°25'2 2.1
2014-Dec-15 17:28N 38°08' E 013°22'0 0.0
2014-Dec-15 16:32N 38°08' E 013°22'0 0.0
2014-Dec-15 15:32N 38°08' E 013°22'0 0.0
2014-Dec-15 14:32N 38°08' E 013°22'0 0.0
2014-Dec-15 13:32N 38°08' E 013°22'0 0.0
2014-Dec-15 12:32N 38°08' E 013°22'0 0.0
2014-Dec-15 11:32N 38°08' E 013°22'0 0.0
2014-Dec-15 10:32N 38°08' E 013°22'0 0.0
2014-Dec-15 09:33N 38°08' E 013°22'0 0.0
2014-Dec-15 08:33N 38°08' E 013°22'0 0.0
2014-Dec-15 07:33N 38°08' E 013°22'3 3.2
2014-Dec-15 06:33N 38°10' E 013°24'1313.3
2014-Dec-15 05:33N 38°19' E 013°11'1616.3
2014-Dec-15 04:33N 38°21' E 012°50'1616.6
2014-Dec-15 03:33N 38°23' E 012°29'17916.1
2014-Dec-14 16:27N 38°46' E 008°43'2015.9
2014-Dec-14 15:13N 38°47' E 008°18'18716.1
2014-Dec-14 03:32N 38°58' E 004°17'1816.6
2014-Dec-14 02:26N 39°00' E 003°54'1516.8
2014-Dec-14 01:33N 39°02' E 003°35'1716.6
2014-Dec-14 00:33N 39°03' E 003°14'1616.3
2014-Dec-13 23:33N 39°05' E 002°53'1515.3
2014-Dec-13 22:33N 39°19' E 002°44'1313.4
2014-Dec-13 21:33N 39°32' E 002°39'1 1.4
2014-Dec-13 20:32N 39°33' E 002°38'0 0.0
2014-Dec-13 19:32N 39°33' E 002°38'0 0.0
2014-Dec-13 18:32N 39°33' E 002°38'0 0.0
2014-Dec-13 17:31N 39°33' E 002°38'0 0.0
2014-Dec-13 16:33N 39°33' E 002°38'0 0.0
2014-Dec-13 15:31N 39°33' E 002°38'0 0.0
2014-Dec-13 14:31N 39°33' E 002°38'0 0.0
2014-Dec-13 13:33N 39°33' E 002°38'0 0.0
2014-Dec-13 12:33N 39°33' E 002°38'0 0.0
2014-Dec-13 11:33N 39°33' E 002°38'0 0.0
2014-Dec-13 10:33N 39°33' E 002°38'0 0.0
2014-Dec-13 08:15N 39°33' E 002°38'0 0.0
2014-Dec-13 07:32N 39°33' E 002°38'0 0.0
2014-Dec-13 06:32N 39°33' E 002°38'0 0.0
2014-Dec-13 05:34N 39°33' E 002°38'0 0.0
2014-Dec-13 04:34N 39°33' E 002°38'3 3.5
2014-Dec-13 03:33N 39°30' E 002°36'1313.2
2014-Dec-13 02:33N 39°29' E 002°19'1413.6
2014-Dec-13 01:29N 39°42' E 002°11'1414.8
2014-Dec-13 00:33N 39°56' E 002°11'1514.9
2014-Dec-12 23:33N 40°11' E 002°11'1212.2
2014-Dec-12 22:33N 40°23' E 002°11'7 7.3
2014-Dec-12 21:33N 40°30' E 002°11'7 7.4
2014-Dec-12 20:33N 40°38' E 002°11'1110.7
2014-Dec-12 19:33N 40°48' E 002°11'1716.1
2014-Dec-12 18:32N 41°05' E 002°11'1613.4
2014-Dec-12 17:21N 41°21' E 002°10'1 0.5
2014-Dec-12 16:16N 41°21' E 002°11'0 0.0
2014-Dec-12 13:16N 41°21' E 002°11'0 0.0
2014-Dec-12 07:14N 41°21' E 002°10'17 9.1
2014-Dec-12 05:23N 41°23' E 002°33'12415.8
2014-Dec-11 21:33N 42°20' E 005°01'7414.6
2014-Dec-11 16:26N 42°54' E 006°30'1011.4
2014-Dec-11 15:33N 43°02' E 006°39'1010.4
2014-Dec-11 14:34N 43°10' E 006°48'10 9.5
2014-Dec-11 13:33N 43°18' E 006°56'9 8.9
2014-Dec-11 12:32N 43°24' E 007°05'9 8.8
2014-Dec-11 11:33N 43°30' E 007°14'9 8.7
2014-Dec-11 10:33N 43°36' E 007°23'5 4.5
2014-Dec-11 09:33N 43°38' E 007°28'8 8.2
2014-Dec-11 08:33N 43°40' E 007°39'7815.5
2014-Dec-11 03:32N 43°11' E 009°19'  

Dump ship's entire track history